Time;durP1;ratioP1;P1;durP2;ratioP2;P2;SDS_P1;SDS_P2;PMS_P1;PMS_P2;Temp;Humidity;BMP_temperature;BMP_pressure;BME280_temperature;BME280_humidity;BME280_pressure;Samples;Min_cycle;Max_cycle;Signal;HPM_P1;HPM_P2
2022/07/13 00:00:04;;;;;;;;;;;;;;;;;;5113779;28;20086;-77
2022/07/13 00:02:29;;;;;;;;;;;;;;;;;;5113634;28;19916;-77
2022/07/13 00:04:54;;;;;;;;;;;;;;;;;;5113785;28;19924;-77
2022/07/13 00:07:19;;;;;;;;;;;;;;;;;;5113806;28;19946;-77
2022/07/13 00:09:45;;;;;;;;;;;;;;;;;;5095238;28;19970;-75
2022/07/13 00:12:10;;;;;;;;;;;;;;;;;;5113910;28;19968;-77
2022/07/13 00:14:35;;;;;;;;;;;;;;;;;;5113784;28;19920;-77
2022/07/13 00:17:00;;;;;;;;;;;;;;;;;;5112162;28;20348;-78
2022/07/13 00:19:26;;;;;;;;;;;;;;;;;;5113493;28;20011;-75
2022/07/13 00:21:52;;;;;;;;;;;;;;;;;;5112435;28;19926;-78
2022/07/13 00:24:18;;;;;;;;;;;;;;;;;;5113979;28;20309;-77
2022/07/13 00:26:43;;;;;;;;;;;;;;;;;;5095060;28;19918;-77
2022/07/13 00:29:08;;;;;;;;;;;;;;;;;;5111888;28;19915;-77
2022/07/13 00:31:34;;;;;;;;;;;;;;;;;;5113790;28;19924;-77
2022/07/13 00:33:59;;;;;;;;;;;;;;;;;;5113461;28;19920;-77
2022/07/13 00:36:24;;;;;;;;;;;;;;;;;;5111864;28;19972;-77
2022/07/13 00:38:49;;;;;;;;;;;;;;;;;;5113491;28;19993;-77
2022/07/13 00:41:15;;;;;;;;;;;;;;;;;;5113555;28;19915;-77
2022/07/13 00:43:40;;;;;;;;;;;;;;;;;;5113213;28;19923;-77
2022/07/13 00:46:05;;;;;;;;;;;;;;;;;;5113612;28;19923;-77
2022/07/13 00:48:30;;;;;;;;;;;;;;;;;;5113608;28;19922;-77
2022/07/13 00:50:56;;;;;;;;;;;;;;;;;;5113151;28;19927;-77
2022/07/13 00:53:21;;;;;;;;;;;;;;;;;;5113546;28;19922;-77
2022/07/13 00:55:46;;;;;;;;;;;;;;;;;;5111806;28;19919;-78
2022/07/13 00:58:12;;;;;;;;;;;;;;;;;;5112104;28;19915;-77
2022/07/13 01:00:37;;;;;;;;;;;;;;;;;;5112044;28;20105;-77
2022/07/13 01:03:02;;;;;;;;;;;;;;;;;;5113201;28;19915;-77
2022/07/13 01:05:28;;;;;;;;;;;;;;;;;;5113501;28;20335;-77
2022/07/13 01:07:53;;;;;;;;;;;;;;;;;;5094590;28;19912;-77
2022/07/13 01:10:18;;;;;;;;;;;;;;;;;;5111591;28;19911;-77
2022/07/13 01:12:43;;;;;;;;;;;;;;;;;;5111543;28;19919;-77
2022/07/13 01:15:09;;;;;;;;;;;;;;;;;;5113318;28;19915;-77
2022/07/13 01:17:35;;;;;;;;;;;;;;;;;;5111901;28;20319;-77
2022/07/13 01:20:00;;;;;;;;;;;;;;;;;;5094450;28;20012;-77
2022/07/13 01:22:26;;;;;;;;;;;;;;;;;;5094461;28;19911;-77
2022/07/13 01:24:52;;;;;;;;;;;;;;;;;;5111315;28;19934;-78
2022/07/13 01:27:17;;;;;;;;;;;;;;;;;;5094901;28;19915;-77
2022/07/13 01:29:42;;;;;;;;;;;;;;;;;;5112810;28;20011;-78
2022/07/13 01:32:07;;;;;;;;;;;;;;;;;;5111408;28;20316;-77
2022/07/13 01:34:33;;;;;;;;;;;;;;;;;;5111308;28;20018;-78
2022/07/13 01:36:58;;;;;;;;;;;;;;;;;;5111429;28;20055;-77
2022/07/13 01:39:24;;;;;;;;;;;;;;;;;;5094278;28;19938;-77
2022/07/13 01:41:49;;;;;;;;;;;;;;;;;;5112800;28;20022;-77
2022/07/13 01:44:15;;;;;;;;;;;;;;;;;;5112533;28;19924;-77
2022/07/13 01:46:40;;;;;;;;;;;;;;;;;;5112637;28;19924;-77
2022/07/13 01:49:05;;;;;;;;;;;;;;;;;;5111218;28;19962;-77
2022/07/13 01:51:30;;;;;;;;;;;;;;;;;;5094201;28;19916;-77
2022/07/13 01:53:56;;;;;;;;;;;;;;;;;;5116271;28;19919;-77
2022/07/13 01:56:21;;;;;;;;;;;;;;;;;;5116161;28;20362;-77
2022/07/13 01:58:46;;;;;;;;;;;;;;;;;;5114752;28;20390;-78
2022/07/13 02:01:12;;;;;;;;;;;;;;;;;;5115202;28;19920;-78
2022/07/13 02:03:37;;;;;;;;;;;;;;;;;;5114984;28;19990;-78
2022/07/13 02:06:03;;;;;;;;;;;;;;;;;;5114820;28;19923;-76
2022/07/13 02:08:28;;;;;;;;;;;;;;;;;;5116301;28;19912;-75
2022/07/13 02:10:53;;;;;;;;;;;;;;;;;;5116125;28;19924;-76
2022/07/13 02:13:19;;;;;;;;;;;;;;;;;;5115894;28;19955;-75
2022/07/13 02:15:44;;;;;;;;;;;;;;;;;;5097621;28;19924;-76
2022/07/13 02:18:10;;;;;;;;;;;;;;;;;;5114507;28;20007;-75
2022/07/13 02:20:35;;;;;;;;;;;;;;;;;;5114485;28;20294;-76
2022/07/13 02:23:00;;;;;;;;;;;;;;;;;;5097421;28;20019;-75
2022/07/13 02:25:26;;;;;;;;;;;;;;;;;;5115896;28;19940;-76
2022/07/13 02:27:51;;;;;;;;;;;;;;;;;;5114525;28;19918;-76
2022/07/13 02:30:16;;;;;;;;;;;;;;;;;;5116024;28;20010;-76
2022/07/13 02:32:42;;;;;;;;;;;;;;;;;;5115803;28;20072;-76
2022/07/13 02:35:07;;;;;;;;;;;;;;;;;;5097235;28;19923;-76
2022/07/13 02:37:33;;;;;;;;;;;;;;;;;;5114543;28;19970;-77
2022/07/13 02:39:58;;;;;;;;;;;;;;;;;;5097140;28;19912;-75
2022/07/13 02:42:23;;;;;;;;;;;;;;;;;;5115406;28;19916;-77
2022/07/13 02:44:52;;;;;;;;;;;;;;;;;;5115541;28;19938;-75
2022/07/13 02:47:17;;;;;;;;;;;;;;;;;;5115502;28;19945;-75
2022/07/13 02:49:42;;;;;;;;;;;;;;;;;;5113832;28;19916;-76
2022/07/13 02:52:07;;;;;;;;;;;;;;;;;;5115442;28;19911;-77
2022/07/13 02:54:33;;;;;;;;;;;;;;;;;;5113919;28;19962;-76
2022/07/13 02:56:58;;;;;;;;;;;;;;;;;;5096604;28;19981;-77
2022/07/13 02:59:23;;;;;;;;;;;;;;;;;;5115245;28;19912;-77
2022/07/13 03:01:48;;;;;;;;;;;;;;;;;;5115349;28;20019;-77
2022/07/13 03:04:14;;;;;;;;;;;;;;;;;;5095379;28;19966;-74
2022/07/13 03:06:39;;;;;;;;;;;;;;;;;;5096534;28;19923;-75
2022/07/13 03:09:04;;;;;;;;;;;;;;;;;;5115030;28;20348;-77
2022/07/13 03:11:29;;;;;;;;;;;;;;;;;;5114846;28;19916;-77
2022/07/13 03:13:54;;;;;;;;;;;;;;;;;;5113244;28;19931;-76
2022/07/13 03:16:20;;;;;;;;;;;;;;;;;;5114670;28;19945;-77
2022/07/13 03:18:45;;;;;;;;;;;;;;;;;;5113354;28;19916;-75
2022/07/13 03:21:10;;;;;;;;;;;;;;;;;;5114806;28;20251;-78
2022/07/13 03:23:36;;;;;;;;;;;;;;;;;;5113023;28;19915;-76
2022/07/13 03:26:01;;;;;;;;;;;;;;;;;;5113118;28;19965;-76
2022/07/13 03:28:26;;;;;;;;;;;;;;;;;;5113088;28;19913;-76
2022/07/13 03:30:52;;;;;;;;;;;;;;;;;;5113055;28;19919;-76
2022/07/13 03:33:17;;;;;;;;;;;;;;;;;;5113023;28;19965;-76
2022/07/13 03:35:42;;;;;;;;;;;;;;;;;;5113051;28;19961;-76
2022/07/13 03:38:07;;;;;;;;;;;;;;;;;;5112757;28;20354;-75
2022/07/13 03:40:33;;;;;;;;;;;;;;;;;;5114297;28;20025;-76
2022/07/13 03:42:58;;;;;;;;;;;;;;;;;;5112756;28;20362;-76
2022/07/13 03:45:23;;;;;;;;;;;;;;;;;;5112792;28;19947;-77
2022/07/13 03:47:48;;;;;;;;;;;;;;;;;;5112862;28;19933;-76
2022/07/13 03:50:14;;;;;;;;;;;;;;;;;;5114087;28;20011;-75
2022/07/13 03:52:39;;;;;;;;;;;;;;;;;;5112532;28;20377;-76
2022/07/13 03:55:04;;;;;;;;;;;;;;;;;;5114063;28;19924;-76
2022/07/13 03:57:30;;;;;;;;;;;;;;;;;;5112317;28;19970;-78
2022/07/13 03:59:55;;;;;;;;;;;;;;;;;;5112842;28;19973;-77
2022/07/13 04:02:20;;;;;;;;;;;;;;;;;;5112484;28;19916;-78
2022/07/13 04:04:45;;;;;;;;;;;;;;;;;;5114205;28;19920;-76
2022/07/13 04:07:11;;;;;;;;;;;;;;;;;;5113785;28;19924;-75
2022/07/13 04:09:36;;;;;;;;;;;;;;;;;;5113922;28;19947;-76
2022/07/13 04:12:01;;;;;;;;;;;;;;;;;;5112614;28;19912;-76
2022/07/13 04:14:26;;;;;;;;;;;;;;;;;;5113143;28;19920;-76
2022/07/13 04:16:52;;;;;;;;;;;;;;;;;;5112025;28;19923;-77
2022/07/13 04:19:17;;;;;;;;;;;;;;;;;;5113502;28;19916;-76
2022/07/13 04:21:42;;;;;;;;;;;;;;;;;;5113746;28;20421;-76
2022/07/13 04:24:07;;;;;;;;;;;;;;;;;;5112164;28;19916;-76
2022/07/13 04:26:33;;;;;;;;;;;;;;;;;;5113664;28;20003;-76
2022/07/13 04:28:58;;;;;;;;;;;;;;;;;;5113665;28;19915;-77
2022/07/13 04:31:23;;;;;;;;;;;;;;;;;;5113969;28;19962;-76
2022/07/13 04:33:49;;;;;;;;;;;;;;;;;;5113310;28;19916;-77
2022/07/13 04:36:14;;;;;;;;;;;;;;;;;;5113175;28;20377;-78
2022/07/13 04:38:39;;;;;;;;;;;;;;;;;;5113128;28;20438;-79
2022/07/13 04:41:04;;;;;;;;;;;;;;;;;;5114320;28;19916;-78
2022/07/13 04:43:30;;;;;;;;;;;;;;;;;;5113505;28;19998;-78
2022/07/13 04:45:56;;;;;;;;;;;;;;;;;;5114663;28;19923;-79
2022/07/13 04:48:21;;;;;;;;;;;;;;;;;;5114696;28;19916;-84
2022/07/13 04:50:46;;;;;;;;;;;;;;;;;;5114346;28;19915;-79
2022/07/13 04:53:12;;;;;;;;;;;;;;;;;;5114232;28;19923;-79
2022/07/13 04:55:37;;;;;;;;;;;;;;;;;;5114119;28;19923;-80
2022/07/13 04:58:02;;;;;;;;;;;;;;;;;;5114135;28;19923;-78
2022/07/13 05:00:28;;;;;;;;;;;;;;;;;;5113011;28;19920;-78
2022/07/13 05:02:53;;;;;;;;;;;;;;;;;;5096417;28;19957;-80
2022/07/13 05:05:18;;;;;;;;;;;;;;;;;;5114444;28;19963;-80
2022/07/13 05:07:44;;;;;;;;;;;;;;;;;;5113250;28;19919;-80
2022/07/13 05:10:09;;;;;;;;;;;;;;;;;;5114128;28;19916;-80
2022/07/13 05:12:41;;;;;;;;;;;;;;;;;;5114113;28;19973;-80
2022/07/13 05:15:07;;;;;;;;;;;;;;;;;;5113039;28;20018;-79
2022/07/13 05:17:32;;;;;;;;;;;;;;;;;;5113912;28;19916;-80
2022/07/13 05:19:57;;;;;;;;;;;;;;;;;;5114499;28;19916;-80
2022/07/13 05:22:23;;;;;;;;;;;;;;;;;;5114304;28;19919;-80
2022/07/13 05:24:48;;;;;;;;;;;;;;;;;;5114169;28;19916;-80
2022/07/13 05:27:13;;;;;;;;;;;;;;;;;;5115321;28;20064;-80
2022/07/13 05:29:38;;;;;;;;;;;;;;;;;;5116638;28;19923;-80
2022/07/13 05:32:04;;;;;;;;;;;;;;;;;;5117819;28;19927;-79
2022/07/13 05:34:30;;;;;;;;;;;;;;;;;;5116902;28;19996;-79
2022/07/13 05:36:55;;;;;;;;;;;;;;;;;;5119124;28;19922;-78
2022/07/13 05:39:21;;;;;;;;;;;;;;;;;;5120378;28;19965;-79
2022/07/13 05:41:46;;;;;;;;;;;;;;;;;;5126461;28;19938;-79
2022/07/13 05:44:11;;;;;;;;;;;;;;;;;;5125896;28;19916;-80
2022/07/13 05:46:36;;;;;;;;;;;;;;;;;;5116803;28;19916;-79
2022/07/13 05:49:02;;;;;;;;;;;;;;;;;;5116770;28;19941;-79
2022/07/13 05:51:28;;;;;;;;;;;;;;;;;;5116253;28;19958;-79
2022/07/13 05:53:53;;;;;;;;;;;;;;;;;;5117414;28;20002;-79
2022/07/13 05:56:18;;;;;;;;;;;;;;;;;;5116383;28;19920;-79
2022/07/13 05:58:43;;;;;;;;;;;;;;;;;;5116541;28;19920;-78
2022/07/13 06:01:09;;;;;;;;;;;;;;;;;;5117543;28;19920;-78
2022/07/13 06:03:34;;;;;;;;;;;;;;;;;;5115941;28;20374;-78
2022/07/13 06:05:59;;;;;;;;;;;;;;;;;;5117392;28;20003;-79
2022/07/13 06:08:24;;;;;;;;;;;;;;;;;;5117734;28;20356;-79
2022/07/13 06:10:50;;;;;;;;;;;;;;;;;;5116180;28;19974;-79
2022/07/13 06:13:15;;;;;;;;;;;;;;;;;;5117194;28;19941;-80
2022/07/13 06:15:40;;;;;;;;;;;;;;;;;;5098716;28;19972;-79
2022/07/13 06:18:06;;;;;;;;;;;;;;;;;;5115999;28;19916;-79
2022/07/13 06:20:31;;;;;;;;;;;;;;;;;;5117544;28;20373;-79
2022/07/13 06:23:11;;;;;;;;;;;;;;;;;;5116991;28;19916;-80
2022/07/13 06:25:37;;;;;;;;;;;;;;;;;;5115896;28;20293;-79
2022/07/13 06:28:03;;;;;;;;;;;;;;;;;;5115881;28;20002;-78
2022/07/13 06:30:28;;;;;;;;;;;;;;;;;;5116879;28;20015;-79
2022/07/13 06:32:53;;;;;;;;;;;;;;;;;;5115613;28;20002;-79
2022/07/13 06:35:19;;;;;;;;;;;;;;;;;;5117231;28;19920;-78
2022/07/13 06:37:44;;;;;;;;;;;;;;;;;;5097971;28;19915;-78
2022/07/13 06:40:10;;;;;;;;;;;;;;;;;;5116841;28;19915;-80
2022/07/13 06:42:35;;;;;;;;;;;;;;;;;;5115214;28;19911;-80
2022/07/13 06:45:00;;;;;;;;;;;;;;;;;;5115388;28;19941;-79
2022/07/13 06:47:25;;;;;;;;;;;;;;;;;;5117065;28;19915;-79
2022/07/13 06:49:51;;;;;;;;;;;;;;;;;;5115227;28;19912;-79
2022/07/13 06:52:16;;;;;;;;;;;;;;;;;;5116616;28;19916;-79
2022/07/13 06:54:41;;;;;;;;;;;;;;;;;;5115511;28;19923;-79
2022/07/13 06:57:07;;;;;;;;;;;;;;;;;;5114917;28;19946;-78
2022/07/13 06:59:32;;;;;;;;;;;;;;;;;;5115225;28;19923;-78
2022/07/13 07:01:57;;;;;;;;;;;;;;;;;;5097768;28;19995;-77
2022/07/13 07:04:22;;;;;;;;;;;;;;;;;;5116514;28;19923;-75
2022/07/13 07:06:48;;;;;;;;;;;;;;;;;;5115774;28;19916;-77
2022/07/13 07:09:13;;;;;;;;;;;;;;;;;;5116357;28;19912;-77
2022/07/13 07:11:38;;;;;;;;;;;;;;;;;;5116553;28;20464;-77
2022/07/13 07:14:03;;;;;;;;;;;;;;;;;;5116723;28;19931;-77
2022/07/13 07:16:29;;;;;;;;;;;;;;;;;;5117200;28;19944;-77
2022/07/13 07:18:54;;;;;;;;;;;;;;;;;;5116154;28;20374;-77
2022/07/13 07:21:19;;;;;;;;;;;;;;;;;;5117917;28;20289;-77
2022/07/13 07:23:47;;;;;;;;;;;;;;;;;;5117145;28;19919;-76
2022/07/13 07:26:12;;;;;;;;;;;;;;;;;;5114411;28;19915;-76
2022/07/13 07:28:37;;;;;;;;;;;;;;;;;;5115985;28;19912;-77
2022/07/13 07:31:02;;;;;;;;;;;;;;;;;;5114601;28;19942;-77
2022/07/13 07:33:28;;;;;;;;;;;;;;;;;;5097289;28;19965;-79
2022/07/13 07:35:53;;;;;;;;;;;;;;;;;;5115412;28;19927;-79
2022/07/13 07:38:18;;;;;;;;;;;;;;;;;;5114892;28;19916;-80
2022/07/13 07:40:44;;;;;;;;;;;;;;;;;;5114779;28;19919;-80
2022/07/13 07:43:09;;;;;;;;;;;;;;;;;;5114332;28;20373;-80
2022/07/13 07:45:38;;;;;;;;;;;;;;;;;;5115553;28;20374;-80
2022/07/13 07:48:03;;;;;;;;;;;;;;;;;;5114250;28;19965;-80
2022/07/13 07:50:28;;;;;;;;;;;;;;;;;;5115253;28;19920;-80
2022/07/13 07:52:54;;;;;;;;;;;;;;;;;;5113772;28;20381;-80
2022/07/13 07:55:19;;;;;;;;;;;;;;;;;;5115340;28;19916;-80
2022/07/13 07:57:45;;;;;;;;;;;;;;;;;;5114904;28;19932;-81
2022/07/13 08:00:10;;;;;;;;;;;;;;;;;;5114028;28;19920;-80
2022/07/13 08:02:36;;;;;;;;;;;;;;;;;;5115086;28;19916;-82
2022/07/13 08:05:01;;;;;;;;;;;;;;;;;;5096672;28;20357;-80
2022/07/13 08:07:26;;;;;;;;;;;;;;;;;;5113611;28;19915;-80
2022/07/13 08:09:51;;;;;;;;;;;;;;;;;;5113856;28;20393;-80
2022/07/13 08:12:17;;;;;;;;;;;;;;;;;;5113604;28;19919;-80
2022/07/13 08:14:42;;;;;;;;;;;;;;;;;;5114736;28;19920;-79
2022/07/13 08:17:07;;;;;;;;;;;;;;;;;;5113476;28;20284;-79
2022/07/13 08:19:32;;;;;;;;;;;;;;;;;;5114625;28;20028;-79
2022/07/13 08:21:58;;;;;;;;;;;;;;;;;;5113447;28;19912;-79
2022/07/13 08:24:23;;;;;;;;;;;;;;;;;;5114612;28;19916;-79
2022/07/13 08:26:49;;;;;;;;;;;;;;;;;;5114816;28;20006;-79
2022/07/13 08:29:15;;;;;;;;;;;;;;;;;;5113831;28;20018;-79
2022/07/13 08:31:40;;;;;;;;;;;;;;;;;;5119047;28;19974;-80
2022/07/13 08:39:36;;;;;;;;;;;;;;;;;;5114189;28;19962;-79
2022/07/13 08:42:03;;;;;;;;;;;;;;;;;;5114486;28;19916;-82
2022/07/13 08:44:28;;;;;;;;;;;;;;;;;;5114836;28;19955;-81
2022/07/13 08:46:53;;;;;;;;;;;;;;;;;;5096148;28;19923;-80
2022/07/13 08:49:19;;;;;;;;;;;;;;;;;;5113125;28;20334;-80
2022/07/13 08:51:46;;;;;;;;;;;;;;;;;;5113406;28;19995;-80
2022/07/13 08:54:11;;;;;;;;;;;;;;;;;;5114357;28;20282;-80
2022/07/13 08:56:36;;;;;;;;;;;;;;;;;;5112824;28;19924;-80
2022/07/13 08:59:01;;;;;;;;;;;;;;;;;;5112923;28;19915;-80
2022/07/13 09:01:27;;;;;;;;;;;;;;;;;;5113499;28;19919;-81
2022/07/13 09:03:52;;;;;;;;;;;;;;;;;;5118715;28;19912;-80
2022/07/13 09:06:37;;;;;;;;;;;;;;;;;;5118782;28;19963;-79
2022/07/13 09:09:03;;;;;;;;;;;;;;;;;;5118438;28;19912;-80
2022/07/13 09:11:28;;;;;;;;;;;;;;;;;;5117383;28;19911;-80
2022/07/13 09:13:55;;;;;;;;;;;;;;;;;;5116728;28;19916;-80
2022/07/13 09:16:24;;;;;;;;;;;;;;;;;;5116925;28;20445;-80
2022/07/13 09:18:54;;;;;;;;;;;;;;;;;;5117355;28;19964;-80
2022/07/13 09:21:20;;;;;;;;;;;;;;;;;;5118086;28;19912;-80
2022/07/13 09:23:46;;;;;;;;;;;;;;;;;;5118067;28;19919;-81
2022/07/13 09:26:12;;;;;;;;;;;;;;;;;;5117525;28;19911;-79
2022/07/13 09:28:40;;;;;;;;;;;;;;;;;;5118699;28;19953;-79
2022/07/13 09:31:06;;;;;;;;;;;;;;;;;;5100965;28;19926;-79
2022/07/13 09:33:32;;;;;;;;;;;;;;;;;;5117880;28;19924;-79
2022/07/13 09:35:58;;;;;;;;;;;;;;;;;;5116841;28;19940;-79
2022/07/13 09:38:34;;;;;;;;;;;;;;;;;;5117581;28;19915;-79
2022/07/13 09:41:14;;;;;;;;;;;;;;;;;;5117979;28;20273;-79
2022/07/13 09:46:50;;;;;;;;;;;;;;;;;;5118362;28;20052;-79
2022/07/13 09:49:19;;;;;;;;;;;;;;;;;;5117146;28;19911;-79
2022/07/13 09:51:45;;;;;;;;;;;;;;;;;;5100167;28;19923;-79
2022/07/13 09:54:11;;;;;;;;;;;;;;;;;;5120659;28;19935;-79
2022/07/13 09:56:36;;;;;;;;;;;;;;;;;;5117930;28;19942;-78
2022/07/13 09:59:04;;;;;;;;;;;;;;;;;;5119325;28;20255;-79
2022/07/13 10:01:29;;;;;;;;;;;;;;;;;;5118261;28;19977;-79
2022/07/13 10:03:55;;;;;;;;;;;;;;;;;;5116720;28;19916;-78
2022/07/13 10:06:21;;;;;;;;;;;;;;;;;;5118069;28;19916;-79
2022/07/13 10:08:46;;;;;;;;;;;;;;;;;;5116720;28;20361;-78
2022/07/13 10:11:11;;;;;;;;;;;;;;;;;;5116992;28;19912;-79
2022/07/13 10:13:37;;;;;;;;;;;;;;;;;;5119330;28;20014;-78
2022/07/13 10:16:02;;;;;;;;;;;;;;;;;;5117850;28;19920;-78
2022/07/13 10:18:29;;;;;;;;;;;;;;;;;;5117244;28;20396;-79
2022/07/13 10:21:00;;;;;;;;;;;;;;;;;;5117723;28;19974;-80
2022/07/13 10:23:38;;;;;;;;;;;;;;;;;;5117226;28;19915;-80
2022/07/13 10:26:04;;;;;;;;;;;;;;;;;;5116781;28;19912;-80
2022/07/13 10:28:29;;;;;;;;;;;;;;;;;;5099824;28;20384;-82
2022/07/13 10:30:54;;;;;;;;;;;;;;;;;;5118967;28;20422;-81
2022/07/13 10:33:21;;;;;;;;;;;;;;;;;;5101415;28;19951;-84
2022/07/13 10:35:50;;;;;;;;;;;;;;;;;;5117237;28;19920;-83
2022/07/13 10:38:20;;;;;;;;;;;;;;;;;;5116987;28;20362;-82
2022/07/13 10:40:45;;;;;;;;;;;;;;;;;;5118202;28;20377;-82
2022/07/13 10:43:11;;;;;;;;;;;;;;;;;;5119278;28;19933;-83
2022/07/13 10:45:40;;;;;;;;;;;;;;;;;;5119236;28;19911;-82
2022/07/13 10:48:05;;;;;;;;;;;;;;;;;;5119822;28;19927;-82
2022/07/13 10:50:38;;;;;;;;;;;;;;;;;;5118908;28;20011;-80
2022/07/13 10:53:03;;;;;;;;;;;;;;;;;;5118215;28;19919;-81
2022/07/13 10:55:29;;;;;;;;;;;;;;;;;;5100656;28;19916;-82
2022/07/13 10:57:54;;;;;;;;;;;;;;;;;;5117099;28;19920;-83
2022/07/13 11:00:22;;;;;;;;;;;;;;;;;;5117836;28;19920;-83
2022/07/13 11:02:49;;;;;;;;;;;;;;;;;;5118690;28;20008;-82
2022/07/13 11:05:17;;;;;;;;;;;;;;;;;;5119173;28;19916;-82
2022/07/13 11:07:43;;;;;;;;;;;;;;;;;;5117504;28;19960;-83
2022/07/13 11:10:24;;;;;;;;;;;;;;;;;;5117652;28;19912;-88
2022/07/13 11:13:03;;;;;;;;;;;;;;;;;;5120281;28;19912;-84
2022/07/13 11:15:42;;;;;;;;;;;;;;;;;;5117227;28;19915;-81
2022/07/13 11:18:22;;;;;;;;;;;;;;;;;;5116765;28;19922;-81
2022/07/13 11:20:58;;;;;;;;;;;;;;;;;;5116683;28;20377;-82
2022/07/13 11:26:31;;;;;;;;;;;;;;;;;;5118736;28;19919;-80
2022/07/13 11:29:10;;;;;;;;;;;;;;;;;;5121270;28;19939;-80
2022/07/13 11:31:36;;;;;;;;;;;;;;;;;;5117988;28;19924;-81
2022/07/13 11:34:01;;;;;;;;;;;;;;;;;;5115214;28;19948;-80
2022/07/13 11:36:27;;;;;;;;;;;;;;;;;;5114810;28;19927;-78
2022/07/13 11:38:52;;;;;;;;;;;;;;;;;;5114619;28;20011;-80
2022/07/13 11:41:23;;;;;;;;;;;;;;;;;;5115866;28;19916;-82
2022/07/13 11:43:48;;;;;;;;;;;;;;;;;;5114418;28;19911;-83
2022/07/13 11:46:14;;;;;;;;;;;;;;;;;;5114545;28;20281;-82
2022/07/13 11:48:40;;;;;;;;;;;;;;;;;;5097180;28;19916;-82
2022/07/13 11:51:06;;;;;;;;;;;;;;;;;;5097209;28;20377;-82
2022/07/13 11:53:31;;;;;;;;;;;;;;;;;;5114207;28;19912;-82
2022/07/13 11:55:58;;;;;;;;;;;;;;;;;;5115070;28;19926;-82
2022/07/13 11:58:33;;;;;;;;;;;;;;;;;;5115527;28;20000;-80
2022/07/13 12:01:17;;;;;;;;;;;;;;;;;;5114435;28;19920;-82
2022/07/13 12:03:51;;;;;;;;;;;;;;;;;;5114411;28;19935;-80
2022/07/13 12:06:17;;;;;;;;;;;;;;;;;;5097121;28;20027;-81
2022/07/13 12:08:43;;;;;;;;;;;;;;;;;;5114698;28;19916;-81
2022/07/13 12:11:09;;;;;;;;;;;;;;;;;;5116663;28;19920;-81
2022/07/13 12:13:35;;;;;;;;;;;;;;;;;;5114803;28;20300;-80
2022/07/13 12:16:01;;;;;;;;;;;;;;;;;;5116050;28;19969;-79
2022/07/13 12:18:27;;;;;;;;;;;;;;;;;;5115061;28;19924;-81
2022/07/13 12:20:52;;;;;;;;;;;;;;;;;;5115540;28;19916;-81
2022/07/13 12:23:17;;;;;;;;;;;;;;;;;;5116739;28;20022;-81
2022/07/13 12:25:43;;;;;;;;;;;;;;;;;;5117370;28;20024;-81
2022/07/13 12:28:09;;;;;;;;;;;;;;;;;;5115671;28;19919;-81
2022/07/13 12:30:35;;;;;;;;;;;;;;;;;;5117637;28;20286;-78
2022/07/13 12:33:07;;;;;;;;;;;;;;;;;;5114966;28;19912;-78
2022/07/13 12:35:39;;;;;;;;;;;;;;;;;;5114404;28;19958;-79
2022/07/13 12:38:08;;;;;;;;;;;;;;;;;;5114583;28;19926;-80
2022/07/13 12:40:38;;;;;;;;;;;;;;;;;;5113512;28;19915;-79
2022/07/13 12:43:03;;;;;;;;;;;;;;;;;;5114767;28;20018;-80
2022/07/13 12:45:30;;;;;;;;;;;;;;;;;;5114652;28;19974;-79
2022/07/13 12:47:55;;;;;;;;;;;;;;;;;;5113332;28;19916;-79
2022/07/13 12:50:29;;;;;;;;;;;;;;;;;;5114425;28;19916;-79
2022/07/13 12:53:01;;;;;;;;;;;;;;;;;;5113770;28;19916;-79
2022/07/13 12:55:26;;;;;;;;;;;;;;;;;;5114329;28;19929;-80
2022/07/13 12:57:52;;;;;;;;;;;;;;;;;;5114475;28;19954;-79
2022/07/13 13:00:21;;;;;;;;;;;;;;;;;;5113007;28;19984;-79
2022/07/13 13:02:47;;;;;;;;;;;;;;;;;;5113045;28;19937;-79
2022/07/13 13:05:12;;;;;;;;;;;;;;;;;;5113478;28;19912;-79
2022/07/13 13:07:37;;;;;;;;;;;;;;;;;;5112989;28;20064;-79
2022/07/13 13:10:03;;;;;;;;;;;;;;;;;;5114875;28;19916;-79
2022/07/13 13:12:28;;;;;;;;;;;;;;;;;;5114804;28;20333;-80
2022/07/13 13:14:54;;;;;;;;;;;;;;;;;;5114505;28;20543;-86
2022/07/13 13:17:19;;;;;;;;;;;;;;;;;;5114851;28;19916;-82
2022/07/13 13:19:46;;;;;;;;;;;;;;;;;;5114962;28;20010;-81
2022/07/13 13:22:11;;;;;;;;;;;;;;;;;;5096679;28;20025;-82
2022/07/13 13:24:38;;;;;;;;;;;;;;;;;;5112910;28;19967;-81
2022/07/13 13:27:03;;;;;;;;;;;;;;;;;;5113374;28;19916;-82
2022/07/13 13:32:32;;;;;;;;;;;;;;;;;;5071447;28;19920;-82
2022/07/13 13:34:58;;;;;;;;;;;;;;;;;;5071976;28;19943;-83
2022/07/13 13:37:23;;;;;;;;;;;;;;;;;;5090851;28;19916;-80
2022/07/13 13:39:48;;;;;;;;;;;;;;;;;;5113123;28;19976;-81
2022/07/13 13:42:13;;;;;;;;;;;;;;;;;;5112619;28;19912;-81
2022/07/13 13:44:39;;;;;;;;;;;;;;;;;;5112637;28;19923;-81
2022/07/13 13:47:04;;;;;;;;;;;;;;;;;;5113847;28;19927;-80
2022/07/13 13:49:29;;;;;;;;;;;;;;;;;;5116197;28;20323;-80
2022/07/13 13:51:54;;;;;;;;;;;;;;;;;;5116949;28;19923;-80
2022/07/13 13:54:20;;;;;;;;;;;;;;;;;;5116129;28;19927;-80
2022/07/13 13:56:45;;;;;;;;;;;;;;;;;;5117473;28;19927;-80
2022/07/13 13:59:10;;;;;;;;;;;;;;;;;;5099522;28;19912;-80
2022/07/13 14:01:35;;;;;;;;;;;;;;;;;;5117662;28;20011;-80
2022/07/13 14:04:01;;;;;;;;;;;;;;;;;;5117270;28;19916;-81
2022/07/13 14:06:26;;;;;;;;;;;;;;;;;;5116077;28;19919;-80
2022/07/13 14:08:51;;;;;;;;;;;;;;;;;;5117861;28;19963;-80
2022/07/13 14:11:17;;;;;;;;;;;;;;;;;;5115889;28;19916;-81
2022/07/13 14:13:42;;;;;;;;;;;;;;;;;;5115969;28;19917;-81
2022/07/13 14:16:08;;;;;;;;;;;;;;;;;;5098746;28;20018;-81
2022/07/13 14:18:33;;;;;;;;;;;;;;;;;;5116529;28;20278;-80
2022/07/13 14:20:58;;;;;;;;;;;;;;;;;;5116860;28;19966;-82
2022/07/13 14:23:24;;;;;;;;;;;;;;;;;;5117834;28;19912;-80
2022/07/13 14:25:49;;;;;;;;;;;;;;;;;;5118057;28;19912;-81
2022/07/13 14:28:15;;;;;;;;;;;;;;;;;;5102176;28;20441;-81
2022/07/13 14:30:40;;;;;;;;;;;;;;;;;;5100001;28;19963;-81
2022/07/13 14:33:06;;;;;;;;;;;;;;;;;;5118704;28;19923;-81
2022/07/13 14:35:31;;;;;;;;;;;;;;;;;;5119380;28;19919;-81
2022/07/13 14:37:56;;;;;;;;;;;;;;;;;;5118701;28;19916;-81
2022/07/13 14:40:21;;;;;;;;;;;;;;;;;;5118566;28;19955;-81
2022/07/13 14:42:47;;;;;;;;;;;;;;;;;;5116984;28;19912;-81
2022/07/13 14:45:12;;;;;;;;;;;;;;;;;;5115786;28;19966;-81
2022/07/13 14:47:37;;;;;;;;;;;;;;;;;;5117421;28;19974;-81
2022/07/13 14:50:03;;;;;;;;;;;;;;;;;;5098913;28;19935;-81
2022/07/13 14:52:28;;;;;;;;;;;;;;;;;;5115455;28;19962;-81
2022/07/13 14:54:54;;;;;;;;;;;;;;;;;;5115308;28;19973;-81
2022/07/13 14:57:19;;;;;;;;;;;;;;;;;;5116632;28;19923;-81
2022/07/13 14:59:44;;;;;;;;;;;;;;;;;;5117362;28;19962;-81
2022/07/13 15:02:09;;;;;;;;;;;;;;;;;;5117798;28;20305;-81
2022/07/13 15:04:39;;;;;;;;;;;;;;;;;;5116223;28;19919;-79
2022/07/13 15:07:04;;;;;;;;;;;;;;;;;;5118426;28;20006;-78
2022/07/13 15:09:29;;;;;;;;;;;;;;;;;;5116605;28;20020;-81
2022/07/13 15:11:55;;;;;;;;;;;;;;;;;;5117358;28;19916;-80
2022/07/13 15:14:20;;;;;;;;;;;;;;;;;;5115986;28;19927;-80
2022/07/13 15:16:46;;;;;;;;;;;;;;;;;;5116533;28;19995;-82
2022/07/13 15:19:11;;;;;;;;;;;;;;;;;;5116537;28;19916;-83
2022/07/13 15:21:37;;;;;;;;;;;;;;;;;;5099775;28;20372;-83
2022/07/13 15:24:02;;;;;;;;;;;;;;;;;;5115776;28;19966;-82
2022/07/13 15:26:28;;;;;;;;;;;;;;;;;;5114554;28;19957;-82
2022/07/13 15:28:53;;;;;;;;;;;;;;;;;;5115905;28;19915;-81
2022/07/13 15:31:21;;;;;;;;;;;;;;;;;;5097671;28;19969;-82
2022/07/13 15:33:47;;;;;;;;;;;;;;;;;;5114292;28;19912;-82
2022/07/13 15:36:12;;;;;;;;;;;;;;;;;;5115672;28;19939;-83
2022/07/13 15:38:39;;;;;;;;;;;;;;;;;;5114416;28;19916;-82
2022/07/13 15:43:49;;;;;;;;;;;;;;;;;;5114576;28;20282;-82
2022/07/13 15:46:14;;;;;;;;;;;;;;;;;;5115849;28;19916;-83
2022/07/13 15:48:40;;;;;;;;;;;;;;;;;;5114383;28;20425;-82
2022/07/13 15:51:05;;;;;;;;;;;;;;;;;;5103902;28;19918;-81
2022/07/13 15:53:30;;;;;;;;;;;;;;;;;;5121236;28;19916;-81
2022/07/13 15:55:56;;;;;;;;;;;;;;;;;;5115446;28;19966;-80
2022/07/13 15:58:23;;;;;;;;;;;;;;;;;;5114692;28;20280;-80
2022/07/13 16:00:48;;;;;;;;;;;;;;;;;;5114065;28;19922;-81
2022/07/13 16:03:13;;;;;;;;;;;;;;;;;;5115232;28;20286;-80
2022/07/13 16:05:39;;;;;;;;;;;;;;;;;;5114899;28;19916;-80
2022/07/13 16:08:04;;;;;;;;;;;;;;;;;;5115508;28;20014;-78
2022/07/13 16:10:29;;;;;;;;;;;;;;;;;;5113554;28;20358;-80
2022/07/13 16:12:55;;;;;;;;;;;;;;;;;;5114932;28;20422;-80
2022/07/13 16:15:20;;;;;;;;;;;;;;;;;;5115017;28;20347;-80
2022/07/13 16:17:46;;;;;;;;;;;;;;;;;;5115342;28;19920;-80
2022/07/13 16:20:11;;;;;;;;;;;;;;;;;;5115098;28;19916;-79
2022/07/13 16:22:36;;;;;;;;;;;;;;;;;;5114987;28;20014;-79
2022/07/13 16:25:02;;;;;;;;;;;;;;;;;;5113589;28;20370;-78
2022/07/13 16:27:28;;;;;;;;;;;;;;;;;;5115351;28;19912;-80
2022/07/13 16:29:53;;;;;;;;;;;;;;;;;;5114793;28;19915;-79
2022/07/13 16:32:18;;;;;;;;;;;;;;;;;;5114905;28;19926;-80
2022/07/13 16:34:43;;;;;;;;;;;;;;;;;;5113553;28;20382;-79
2022/07/13 16:37:09;;;;;;;;;;;;;;;;;;5113591;28;19919;-79
2022/07/13 16:39:35;;;;;;;;;;;;;;;;;;5113335;28;19923;-80
2022/07/13 16:42:00;;;;;;;;;;;;;;;;;;5113540;28;20450;-78
2022/07/13 16:44:25;;;;;;;;;;;;;;;;;;5114312;28;19919;-79
2022/07/13 16:46:51;;;;;;;;;;;;;;;;;;5114410;28;19972;-80
2022/07/13 16:49:16;;;;;;;;;;;;;;;;;;5114304;28;19964;-80
2022/07/13 16:51:42;;;;;;;;;;;;;;;;;;5114318;28;19915;-80
2022/07/13 16:54:07;;;;;;;;;;;;;;;;;;5096093;28;20002;-79